Time;durP1;ratioP1;P1;durP2;ratioP2;P2;SDS_P1;SDS_P2;PMS_P1;PMS_P2;Temp;Humidity;BMP_temperature;BMP_pressure;BME280_temperature;BME280_humidity;BME280_pressure;Samples;Min_cycle;Max_cycle;Signal;HPM_P1;HPM_P2
2021/09/14 00:01:21;;;;;;;;;8.25;8.25;;;;;25.60;45.45;100780.94;5057103;28;51016;-43
2021/09/14 00:03:47;;;;;;;;;10.00;8.00;;;;;25.59;45.62;100766.22;5057820;28;50993;-42
2021/09/14 00:06:12;;;;;;;;;8.00;8.00;;;;;25.58;45.51;100750.69;5057781;28;52032;-42
2021/09/14 00:08:38;;;;;;;;;7.50;7.25;;;;;25.59;45.26;100765.38;5057937;28;51054;-43
2021/09/14 00:11:03;;;;;;;;;7.75;7.75;;;;;25.58;45.14;100772.03;5058124;28;51154;-44
2021/09/14 00:13:28;;;;;;;;;7.25;7.25;;;;;25.57;45.38;100779.53;5058256;28;51380;-43
2021/09/14 00:15:54;;;;;;;;;7.25;7.00;;;;;25.56;45.68;100788.09;5058349;28;51779;-43
2021/09/14 00:18:19;;;;;;;;;6.50;6.50;;;;;25.55;45.46;100780.88;5057900;28;50910;-42
2021/09/14 00:20:44;;;;;;;;;6.75;6.75;;;;;25.55;45.57;100778.09;5057647;28;50843;-45
2021/09/14 00:23:10;;;;;;;;;5.75;4.50;;;;;25.55;45.56;100778.09;5058266;28;50922;-42
2021/09/14 00:25:35;;;;;;;;;5.00;5.00;;;;;25.54;45.52;100776.44;5057596;28;51023;-43
2021/09/14 00:28:01;;;;;;;;;4.50;4.50;;;;;25.53;45.59;100769.19;5065745;28;51099;-43
2021/09/14 00:30:26;;;;;;;;;6.00;5.25;;;;;25.53;45.72;100774.72;5057361;28;51179;-41
2021/09/14 00:32:52;;;;;;;;;7.00;7.00;;;;;25.53;45.58;100771.94;5057725;28;51074;-47
2021/09/14 00:35:17;;;;;;;;;6.50;5.75;;;;;25.52;45.79;100770.28;5057261;28;51715;-45
2021/09/14 00:37:43;;;;;;;;;4.25;4.25;;;;;25.51;46.05;100772.22;5057992;28;51142;-45
2021/09/14 00:40:09;;;;;;;;;8.75;7.00;;;;;25.51;45.73;100779.69;5057404;28;50984;-43
2021/09/14 00:42:35;;;;;;;;;6.25;6.25;;;;;25.51;45.73;100779.69;5049659;28;51272;-47
2021/09/14 00:45:02;;;;;;;;;9.00;7.50;;;;;25.50;45.71;100780.78;5057265;28;52479;-46
2021/09/14 00:47:27;;;;;;;;;7.75;7.75;;;;;25.49;45.76;100776.34;5056151;28;51258;-47
2021/09/14 00:49:53;;;;;;;;;8.50;8.50;;;;;25.49;45.74;100779.13;5057021;28;51084;-48
2021/09/14 00:52:18;;;;;;;;;10.50;8.75;;;;;25.48;45.71;100769.97;5057685;28;51311;-46
2021/09/14 00:54:44;;;;;;;;;6.00;6.00;;;;;25.48;45.99;100781.06;5056989;28;52211;-44
2021/09/14 00:57:09;;;;;;;;;7.25;7.25;;;;;25.47;46.10;100779.38;5057431;28;51013;-47
2021/09/14 00:59:35;;;;;;;;;7.50;6.00;;;;;25.47;45.88;100773.00;5057182;28;51486;-46
2021/09/14 01:02:00;;;;;;;;;7.75;6.25;;;;;25.47;45.68;100775.78;5058017;28;50902;-44
2021/09/14 01:04:26;;;;;;;;;8.25;8.25;;;;;25.45;45.93;100784.34;5056392;28;51859;-45
2021/09/14 01:06:51;;;;;;;;;7.00;7.00;;;;;25.46;45.69;100787.97;5057175;28;51174;-44
2021/09/14 01:09:17;;;;;;;;;8.75;7.00;;;;;25.46;45.82;100790.75;5057005;28;51436;-48
2021/09/14 01:11:44;;;;;;;;;6.75;6.00;;;;;25.45;45.67;100789.91;5057612;28;51116;-45
2021/09/14 01:14:10;;;;;;;;;6.25;6.00;;;;;25.44;45.80;100779.91;5056770;28;51807;-44
2021/09/14 01:16:37;;;;;;;;;6.75;6.75;;;;;25.44;45.92;100771.59;5057396;28;50994;-45
2021/09/14 01:19:04;;;;;;;;;5.00;4.50;;;;;25.44;45.70;100782.69;5056989;28;51064;-43
2021/09/14 01:21:31;;;;;;;;;6.75;6.75;;;;;25.43;46.09;100785.69;5056172;28;51053;-43
2021/09/14 01:23:57;;;;;;;;;7.75;6.25;;;;;25.42;46.23;100784.84;5056729;28;52010;-46
2021/09/14 01:26:23;;;;;;;;;6.75;6.75;;;;;25.43;45.95;100789.31;5061883;28;51166;-43
2021/09/14 01:28:50;;;;;;;;;7.75;5.00;;;;;25.43;45.89;100794.00;5058996;27;50920;-45
2021/09/14 01:31:15;;;;;;;;;7.25;6.00;;;;;25.42;46.06;100795.09;5056997;28;51112;-46
2021/09/14 01:33:46;;;;;;;;;7.00;7.00;;;;;25.42;46.14;100800.66;5056012;28;51035;-45
2021/09/14 01:36:12;;;;;;;;;8.75;8.00;;;;;25.41;45.86;100801.75;5056532;28;51006;-42
2021/09/14 01:38:37;;;;;;;;;6.00;5.50;;;;;25.41;46.02;100810.06;5056788;28;51027;-43
2021/09/14 01:41:02;;;;;;;;;9.00;6.50;;;;;25.40;46.02;100809.22;5055869;28;51213;-44
2021/09/14 01:43:28;;;;;;;;;6.50;6.50;;;;;25.41;45.94;100818.38;5056528;28;51887;-44
2021/09/14 01:45:53;;;;;;;;;4.25;4.25;;;;;25.40;46.04;100817.53;5056235;28;51070;-43
2021/09/14 01:48:18;;;;;;;;;5.75;5.00;;;;;25.39;46.20;100829.72;5056410;28;50848;-42
2021/09/14 01:50:45;;;;;;;;;6.75;6.75;;;;;25.39;46.12;100838.06;5048054;28;51046;-45
2021/09/14 01:53:11;;;;;;;;;6.00;6.00;;;;;25.38;46.20;100847.47;5055698;28;52022;-44
2021/09/14 01:55:37;;;;;;;;;9.00;8.00;;;;;25.38;46.31;100850.25;5056288;28;51124;-44
2021/09/14 01:58:03;;;;;;;;;5.50;5.50;;;;;25.38;46.14;100857.72;5056823;28;51061;-41
2021/09/14 02:00:34;;;;;;;;;8.00;7.25;;;;;25.38;46.35;100854.94;5056376;28;50967;-40
2021/09/14 02:05:56;;;;;;;;;9.00;6.25;;;;;25.35;46.29;100864.63;5053256;28;50827;-40
2021/09/14 02:30:15;;;;;;;;;8.25;6.75;;;;;25.29;46.59;100826.81;5056081;28;51064;-40
2021/09/14 02:58:38;;;;;;;;;9.50;8.25;;;;;25.25;46.65;100770.22;5059052;28;51052;-40
2021/09/14 02:59:59;;;;;;;;;7.50;4.75;;;;;25.24;46.72;100763.00;5059381;28;51089;-41
2021/09/14 03:02:25;;;;;;;;;6.75;6.75;;;;;25.23;46.74;100753.84;5058918;28;51405;-42
2021/09/14 03:04:50;;;;;;;;;6.25;5.00;;;;;25.25;46.96;100739.72;5058568;28;51034;-40
2021/09/14 03:07:15;;;;;;;;;6.25;5.25;;;;;25.25;46.97;100729.47;5058976;28;51601;-41
2021/09/14 03:09:41;;;;;;;;;5.25;5.25;;;;;25.24;47.03;100718.63;5058657;28;51209;-44
2021/09/14 03:12:06;;;;;;;;;6.50;5.00;;;;;25.25;46.92;100728.63;5059142;28;51130;-42
2021/09/14 03:14:32;;;;;;;;;6.25;6.00;;;;;25.24;47.07;100744.44;5059227;28;51196;-43
2021/09/14 03:16:58;;;;;;;;;7.25;7.25;;;;;25.26;47.41;100733.06;5058931;28;51672;-44
2021/09/14 03:19:23;;;;;;;;;7.00;6.25;;;;;25.25;47.28;100739.72;5058861;28;50903;-45
2021/09/14 03:21:49;;;;;;;;;9.25;6.00;;;;;25.24;47.04;100747.19;5058362;28;51790;-41
2021/09/14 03:24:14;;;;;;;;;7.00;7.00;;;;;25.24;47.41;100747.19;5059000;28;51007;-42
2021/09/14 03:26:39;;;;;;;;;10.25;7.50;;;;;25.24;47.26;100752.75;5060667;28;51727;-44
2021/09/14 03:29:05;;;;;;;;;8.00;6.50;;;;;25.24;47.49;100744.44;5058307;28;50913;-42
2021/09/14 03:31:30;;;;;;;;;7.25;7.00;;;;;25.24;47.40;100738.03;5058324;28;51016;-45
2021/09/14 03:33:56;;;;;;;;;5.75;5.25;;;;;25.24;47.40;100740.81;5058051;28;51379;-43
2021/09/14 03:36:22;;;;;;;;;8.50;7.25;;;;;25.24;47.65;100729.72;5058371;28;51067;-42
2021/09/14 03:38:47;;;;;;;;;6.75;6.75;;;;;25.22;47.77;100710.59;5058153;28;51321;-44
2021/09/14 03:41:13;;;;;;;;;5.00;5.00;;;;;25.22;47.75;100699.50;5059171;28;51066;-42
2021/09/14 03:43:38;;;;;;;;;6.25;5.75;;;;;25.23;47.84;100703.94;5058076;28;51716;-44
2021/09/14 03:46:03;;;;;;;;;6.50;6.00;;;;;25.23;48.12;100703.94;5058254;28;51060;-41
2021/09/14 03:48:29;;;;;;;;;8.00;7.50;;;;;25.23;47.82;100697.56;5058293;28;51186;-43
2021/09/14 03:50:54;;;;;;;;;8.25;8.00;;;;;25.22;48.01;100684.78;5057765;28;50988;-42
2021/09/14 03:53:20;;;;;;;;;9.25;8.00;;;;;25.22;48.07;100685.63;5058529;28;51277;-42
2021/09/14 03:55:45;;;;;;;;;8.25;7.25;;;;;25.23;47.92;100692.03;5057808;28;50990;-42
2021/09/14 03:58:10;;;;;;;;;8.75;7.00;;;;;25.23;47.93;100692.84;5058183;28;51027;-42
2021/09/14 04:00:36;;;;;;;;;6.50;6.50;;;;;25.22;47.71;100688.41;5057969;28;50958;-46
2021/09/14 04:03:04;;;;;;;;;6.25;6.25;;;;;25.22;48.22;100695.84;5058068;28;50973;-43
2021/09/14 04:05:36;;;;;;;;;7.75;7.75;;;;;25.21;47.69;100694.19;5057306;28;51923;-43
2021/09/14 04:10:37;;;;;;;;;9.25;6.75;;;;;25.20;48.30;100698.88;5057494;28;51122;-42
2021/09/14 04:13:03;;;;;;;;;8.00;7.50;;;;;25.19;48.12;100696.38;5057889;28;51148;-43
2021/09/14 04:15:29;;;;;;;;;8.00;7.75;;;;;25.19;48.30;100699.16;5057067;28;51128;-43
2021/09/14 04:17:54;;;;;;;;;7.75;7.25;;;;;25.18;48.39;100698.31;5058201;28;50938;-43
2021/09/14 04:20:20;;;;;;;;;8.00;8.00;;;;;25.18;48.35;100701.09;5057560;28;51048;-43
2021/09/14 04:22:45;;;;;;;;;7.50;7.50;;;;;25.16;48.77;100714.38;5057912;28;51060;-44
2021/09/14 04:25:11;;;;;;;;;10.75;10.00;;;;;25.17;48.71;100716.03;5057433;28;51745;-43
2021/09/14 04:27:36;;;;;;;;;7.50;7.50;;;;;25.17;48.77;100716.03;5057825;28;51104;-46
2021/09/14 04:30:02;;;;;;;;;6.75;6.25;;;;;25.16;48.84;100697.75;5056286;28;51718;-42
2021/09/14 04:32:28;;;;;;;;;9.50;7.00;;;;;25.16;48.72;100705.22;5057791;28;51147;-43
2021/09/14 04:34:53;;;;;;;;;9.25;8.25;;;;;25.16;48.92;100700.50;5057275;28;51062;-43
2021/09/14 04:37:18;;;;;;;;;8.75;8.50;;;;;25.16;48.93;100688.59;5057737;28;50963;-43
2021/09/14 04:39:44;;;;;;;;;8.25;8.25;;;;;25.15;48.97;100679.44;5056794;28;51140;-44
2021/09/14 04:42:09;;;;;;;;;9.00;9.00;;;;;25.14;48.87;100661.13;5057656;28;50979;-42
2021/09/14 04:44:34;;;;;;;;;9.00;9.00;;;;;25.13;49.05;100640.06;5057009;28;51197;-43
2021/09/14 04:47:00;;;;;;;;;9.00;8.00;;;;;25.14;48.95;100630.66;5057715;28;51054;-43
2021/09/14 04:49:25;;;;;;;;;9.50;8.75;;;;;25.15;49.08;100610.13;5057117;28;50994;-43
2021/09/14 04:51:52;;;;;;;;;10.00;8.50;;;;;25.14;48.81;100583.53;5057348;28;50971;-45
2021/09/14 04:54:17;;;;;;;;;9.00;9.00;;;;;25.15;49.26;100564.97;5056780;28;51977;-42
2021/09/14 04:56:43;;;;;;;;;10.00;8.00;;;;;25.14;49.18;100561.34;5057379;28;50959;-42
2021/09/14 04:59:08;;;;;;;;;12.50;9.50;;;;;25.15;49.37;100578.81;5056972;28;51093;-44
2021/09/14 05:01:33;;;;;;;;;7.00;7.00;;;;;25.13;49.31;100595.72;5056598;28;51246;-43
2021/09/14 05:03:59;;;;;;;;;10.00;8.25;;;;;25.14;49.64;100610.41;5057000;28;52202;-43
2021/09/14 05:06:24;;;;;;;;;8.75;8.00;;;;;25.12;49.44;100624.53;5056812;28;50934;-42
2021/09/14 05:08:49;;;;;;;;;9.50;7.75;;;;;25.12;49.64;100626.47;5055293;28;51209;-43
2021/09/14 05:11:15;;;;;;;;;9.00;7.25;;;;;25.11;49.94;100628.38;5057145;28;50905;-43
2021/09/14 05:13:40;;;;;;;;;9.25;9.25;;;;;25.12;49.70;100609.84;5057164;28;51025;-42
2021/09/14 05:16:06;;;;;;;;;8.00;8.00;;;;;25.10;49.80;100621.16;5056566;28;51162;-43
2021/09/14 05:18:32;;;;;;;;;11.00;6.50;;;;;25.11;50.04;100649.69;5056712;28;50960;-44
2021/09/14 05:20:58;;;;;;;;;10.00;10.00;;;;;25.10;50.07;100659.94;5056914;28;51297;-41
2021/09/14 05:23:30;;;;;;;;;8.25;8.00;;;;;25.09;50.06;100663.81;5055655;28;52939;-43
2021/09/14 05:25:58;;;;;;;;;8.00;8.00;;;;;25.08;50.36;100656.59;5057806;28;51364;-45
2021/09/14 05:28:24;;;;;;;;;13.00;10.00;;;;;25.07;50.23;100666.03;5062514;27;51105;-43
2021/09/14 05:30:50;;;;;;;;;9.25;7.00;;;;;25.09;50.34;100674.06;5055387;28;51232;-43
2021/09/14 05:33:16;;;;;;;;;8.00;8.00;;;;;25.08;50.60;100684.31;5052964;28;52089;-44
2021/09/14 05:35:48;;;;;;;;;9.00;9.00;;;;;25.08;50.56;100697.34;5051284;28;51033;-46
2021/09/14 05:38:15;;;;;;;;;9.00;9.00;;;;;25.06;50.57;100694.84;5056945;28;51083;-46
2021/09/14 05:40:42;;;;;;;;;8.75;7.50;;;;;25.05;50.89;100707.00;5056647;28;50985;-43
2021/09/14 05:43:08;;;;;;;;;11.00;8.00;;;;;25.04;50.71;100716.44;5055792;28;51064;-41
2021/09/14 05:45:33;;;;;;;;;10.25;9.00;;;;;25.03;50.76;100731.38;5055501;28;51043;-42
2021/09/14 05:48:00;;;;;;;;;8.50;8.00;;;;;25.01;51.01;100725.19;5053106;28;51309;-43
2021/09/14 05:50:25;;;;;;;;;9.75;9.25;;;;;25.01;51.04;100726.09;5054352;28;51387;-44
2021/09/14 05:52:51;;;;;;;;;11.00;10.25;;;;;25.00;51.16;100738.22;5056216;28;52132;-43
2021/09/14 05:55:17;;;;;;;;;11.00;10.00;;;;;24.99;51.10;100760.66;5056170;28;51144;-43
2021/09/14 05:57:42;;;;;;;;;14.25;11.00;;;;;24.98;51.01;100754.28;5056703;28;51007;-45
2021/09/14 06:00:08;;;;;;;;;10.50;10.50;;;;;24.97;51.16;100769.22;5055867;28;51340;-44
2021/09/14 06:02:33;;;;;;;;;11.50;8.25;;;;;24.97;51.27;100776.69;5052788;28;52770;-41
2021/09/14 06:04:59;;;;;;;;;12.75;11.00;;;;;24.95;51.11;100801.91;5054727;28;51209;-43
2021/09/14 06:07:24;;;;;;;;;8.00;8.00;;;;;24.95;51.44;100795.50;5054859;28;51104;-39
2021/09/14 06:09:50;;;;;;;;;11.25;10.25;;;;;24.93;51.08;100795.78;5056735;28;51257;-39
2021/09/14 06:12:15;;;;;;;;;9.75;8.50;;;;;24.93;51.51;100803.25;5055540;28;50949;-39
2021/09/14 06:14:40;;;;;;;;;11.00;11.00;;;;;24.94;51.54;100810.47;5057907;28;51012;-39
2021/09/14 06:17:06;;;;;;;;;10.75;9.00;;;;;24.93;51.68;100815.16;5055358;28;51233;-39
2021/09/14 06:19:31;;;;;;;;;8.00;8.00;;;;;24.94;51.68;100807.69;5052219;28;50886;-40
2021/09/14 06:21:57;;;;;;;;;8.75;8.75;;;;;24.94;51.60;100822.38;5076228;27;51909;-41
2021/09/14 06:24:22;;;;;;;;;8.25;7.25;;;;;24.95;51.52;100824.06;5058626;28;51087;-40
2021/09/14 06:26:48;;;;;;;;;7.25;6.75;;;;;24.95;51.31;100812.97;5061539;28;51019;-40
2021/09/14 06:29:13;;;;;;;;;6.75;6.00;;;;;24.97;51.10;100809.94;5057360;28;51266;-40
2021/09/14 06:31:38;;;;;;;;;8.00;8.00;;;;;24.98;51.38;100800.53;5058103;28;52711;-44
2021/09/14 06:34:04;;;;;;;;;5.75;5.25;;;;;24.99;51.64;100793.91;5058515;28;52206;-40
2021/09/14 06:36:29;;;;;;;;;6.00;6.00;;;;;24.99;51.44;100802.22;5057900;28;51167;-40
2021/09/14 06:38:55;;;;;;;;;6.00;6.00;;;;;24.99;51.70;100797.50;5055772;28;51140;-41
2021/09/14 06:41:21;;;;;;;;;7.00;6.75;;;;;25.01;51.70;100800.03;5055602;28;51106;-40
2021/09/14 06:43:47;;;;;;;;;9.75;8.00;;;;;25.00;51.66;100804.72;5058209;28;51163;-40
2021/09/14 06:46:13;;;;;;;;;9.75;9.25;;;;;25.01;51.66;100806.47;5059023;28;51067;-41
2021/09/14 06:48:38;;;;;;;;;9.00;7.25;;;;;25.03;51.29;100826.44;5057624;28;50968;-42
2021/09/14 06:51:04;;;;;;;;;10.00;7.00;;;;;25.04;51.41;100832.81;5056631;28;51859;-41
2021/09/14 06:53:30;;;;;;;;;8.25;8.25;;;;;25.05;51.89;100845.59;5058045;28;51141;-41
2021/09/14 06:55:56;;;;;;;;;8.50;7.50;;;;;25.07;51.61;100848.94;5058282;28;51007;-40
2021/09/14 06:58:21;;;;;;;;;7.00;7.00;;;;;25.08;51.52;100852.56;5058643;28;51394;-42
2021/09/14 07:00:46;;;;;;;;;9.00;7.75;;;;;25.07;51.56;100848.94;5058963;28;50968;-41
2021/09/14 07:03:12;;;;;;;;;9.00;7.00;;;;;25.08;51.53;100847.00;5059398;28;51015;-42
2021/09/14 07:05:39;;;;;;;;;6.25;6.00;;;;;25.10;51.22;100842.88;5059293;28;50966;-42
2021/09/14 07:08:04;;;;;;;;;7.50;5.25;;;;;25.10;51.53;100853.97;5059577;28;50906;-43
2021/09/14 07:10:30;;;;;;;;;10.00;8.00;;;;;25.12;51.53;100845.44;5059513;28;52024;-41
2021/09/14 07:12:55;;;;;;;;;7.75;7.75;;;;;25.13;51.36;100845.16;5059910;28;51011;-41
2021/09/14 07:15:21;;;;;;;;;12.00;8.50;;;;;25.13;51.31;100831.31;5059783;28;51254;-43
2021/09/14 07:17:46;;;;;;;;;9.50;7.75;;;;;25.14;50.99;100815.50;5059773;28;50964;-41
2021/09/14 07:20:12;;;;;;;;;8.00;7.00;;;;;25.15;51.34;100808.88;5059285;28;51774;-42
2021/09/14 07:22:38;;;;;;;;;7.75;6.00;;;;;25.15;51.27;100779.22;5059516;28;51015;-43
2021/09/14 07:25:05;;;;;;;;;8.25;7.00;;;;;25.16;51.61;100766.19;5059230;28;51219;-41
2021/09/14 07:27:30;;;;;;;;;8.00;8.00;;;;;25.17;51.50;100768.72;5058229;28;51019;-43
2021/09/14 07:29:55;;;;;;;;;8.75;8.00;;;;;25.17;51.70;100768.72;5058840;28;50880;-42
2021/09/14 07:32:21;;;;;;;;;7.25;6.25;;;;;25.17;51.65;100754.84;5058592;28;51022;-41
2021/09/14 07:34:46;;;;;;;;;6.50;6.50;;;;;25.17;51.54;100757.63;5059021;28;50959;-41
2021/09/14 07:37:12;;;;;;;;;10.25;7.25;;;;;25.17;51.75;100749.31;5059335;28;50895;-40
2021/09/14 07:39:37;;;;;;;;;8.25;6.75;;;;;25.18;51.57;100750.16;5058912;28;52735;-41
2021/09/14 07:42:02;;;;;;;;;8.00;8.00;;;;;25.19;51.38;100760.13;5058928;28;51032;-42
2021/09/14 07:44:28;;;;;;;;;6.00;6.00;;;;;25.19;51.31;100769.28;5059200;28;51139;-41
2021/09/14 07:46:53;;;;;;;;;9.00;8.50;;;;;25.20;51.70;100761.81;5059343;28;51225;-43
2021/09/14 07:49:19;;;;;;;;;8.00;7.50;;;;;25.19;51.71;100738.78;5058512;28;50954;-42
2021/09/14 07:51:44;;;;;;;;;9.50;8.00;;;;;25.19;51.81;100752.66;5058703;28;50928;-43
2021/09/14 07:54:10;;;;;;;;;7.75;7.50;;;;;25.21;51.48;100766.25;5058951;28;51229;-40
2021/09/14 07:56:35;;;;;;;;;10.25;8.00;;;;;25.22;51.92;100779.03;5058927;28;50952;-41
2021/09/14 07:59:02;;;;;;;;;10.25;7.00;;;;;25.23;51.63;100786.28;5058423;27;51134;-41
2021/09/14 08:01:28;;;;;;;;;11.25;9.00;;;;;25.22;51.95;100779.88;5058646;28;51369;-43
2021/09/14 08:03:53;;;;;;;;;9.00;7.50;;;;;25.23;51.58;100789.03;5091320;27;51113;-41
2021/09/14 08:06:18;;;;;;;;;8.50;7.00;;;;;25.24;51.90;100785.19;5058419;28;51042;-40
2021/09/14 08:08:44;;;;;;;;;9.75;8.00;;;;;25.25;51.70;100778.53;5058521;28;52678;-40
2021/09/14 08:11:09;;;;;;;;;10.25;10.25;;;;;25.24;51.81;100787.94;5058350;28;50913;-40
2021/09/14 08:13:35;;;;;;;;;9.25;8.25;;;;;25.24;51.90;100787.94;5058418;28;51177;-43
2021/09/14 08:16:01;;;;;;;;;10.75;7.00;;;;;25.25;51.85;100786.84;5058987;28;50947;-41
2021/09/14 08:18:26;;;;;;;;;9.00;8.00;;;;;25.25;51.73;100801.53;5057864;28;51959;-42
2021/09/14 08:20:52;;;;;;;;;8.50;8.00;;;;;25.25;51.89;100798.78;5058632;28;50867;-43
2021/09/14 08:23:17;;;;;;;;;9.75;7.00;;;;;25.26;52.02;100808.75;5058513;28;50923;-43
2021/09/14 08:25:42;;;;;;;;;8.50;8.50;;;;;25.26;52.18;100806.00;5058596;28;50905;-41
2021/09/14 08:28:08;;;;;;;;;9.00;9.00;;;;;25.27;52.06;100810.44;5058032;28;50837;-48
2021/09/14 08:30:34;;;;;;;;;8.75;7.50;;;;;25.28;51.84;100822.38;5058249;28;51364;-42
2021/09/14 08:32:59;;;;;;;;;7.25;5.75;;;;;25.29;51.79;100827.66;5058192;28;51128;-42
2021/09/14 08:35:25;;;;;;;;;7.25;7.25;;;;;25.28;52.05;100812.13;5058117;28;50913;-40
2021/09/14 08:37:50;;;;;;;;;9.25;6.75;;;;;25.30;52.09;100809.09;5058267;28;51891;-44
2021/09/14 08:40:16;;;;;;;;;11.25;10.25;;;;;25.29;51.97;100818.50;5058038;28;51074;-43
2021/09/14 08:42:41;;;;;;;;;12.25;8.00;;;;;25.30;52.34;100811.84;5058405;28;50984;-43
2021/09/14 08:45:09;;;;;;;;;9.00;8.00;;;;;25.30;52.07;100814.63;5056854;28;51066;-46
2021/09/14 08:47:38;;;;;;;;;9.25;8.50;;;;;25.30;52.12;100811.84;5057611;28;51256;-42
2021/09/14 08:50:05;;;;;;;;;9.75;6.25;;;;;25.30;52.04;100829.31;5057548;28;50970;-44
2021/09/14 08:52:32;;;;;;;;;6.25;5.75;;;;;25.29;52.31;100827.66;5058055;28;50960;-42
2021/09/14 08:54:57;;;;;;;;;8.75;8.00;;;;;25.30;52.49;100845.97;5058127;28;51081;-45
2021/09/14 08:57:23;;;;;;;;;11.00;7.50;;;;;25.30;52.18;100847.91;5057207;28;52851;-45
2021/09/14 08:59:48;;;;;;;;;9.00;7.50;;;;;25.32;52.43;100840.16;5057712;28;50866;-44
2021/09/14 09:02:20;;;;;;;;;5.25;5.00;;;;;25.31;52.60;100839.31;5057580;28;50974;-42
2021/09/14 09:05:03;;;;;;;;;9.75;8.00;;;;;25.32;52.36;100837.38;5057581;28;51095;-41
2021/09/14 09:07:35;;;;;;;;;8.00;8.00;;;;;25.32;52.42;100834.63;5057270;28;52015;-40
2021/09/14 09:10:15;;;;;;;;;8.00;8.00;;;;;25.32;52.43;100838.25;5057911;28;50899;-41
2021/09/14 09:12:50;;;;;;;;;10.50;7.25;;;;;25.32;52.35;100832.72;5057379;28;51154;-40
2021/09/14 09:15:27;;;;;;;;;9.25;7.25;;;;;25.32;52.50;100841.03;5057839;28;51088;-40
2021/09/14 09:18:03;;;;;;;;;8.25;8.25;;;;;25.33;52.51;100841.88;5057028;28;50954;-42
2021/09/14 09:20:29;;;;;;;;;7.25;6.25;;;;;25.34;52.73;100838.00;5056981;28;50969;-40
2021/09/14 09:23:22;;;;;;;;;9.25;7.25;;;;;25.33;52.49;100831.63;5056389;28;51170;-41
2021/09/14 09:25:48;;;;;;;;;6.75;6.75;;;;;25.35;52.32;100830.50;5057515;28;50937;-40
2021/09/14 09:28:19;;;;;;;;;8.00;6.25;;;;;25.35;52.71;100828.59;5057006;28;50940;-43
2021/09/14 09:30:54;;;;;;;;;9.25;6.75;;;;;25.35;52.57;100817.50;5057022;28;51126;-42
2021/09/14 09:33:29;;;;;;;;;9.25;8.00;;;;;25.34;52.55;100813.03;5057212;28;50948;-42
2021/09/14 09:36:07;;;;;;;;;10.25;8.25;;;;;25.35;52.31;100828.59;5057125;28;51191;-40
2021/09/14 09:38:56;;;;;;;;;7.75;7.75;;;;;25.35;52.83;100828.59;5057191;28;51821;-43
2021/09/14 09:41:22;;;;;;;;;8.00;7.00;;;;;25.38;52.67;100841.09;5056879;28;50894;-42
2021/09/14 09:43:48;;;;;;;;;6.25;5.25;;;;;25.38;52.57;100841.94;5057004;28;50960;-42
2021/09/14 09:46:21;;;;;;;;;7.50;6.00;;;;;25.39;52.57;100832.50;5057194;27;51265;-43
2021/09/14 09:48:48;;;;;;;;;6.50;6.50;;;;;25.39;52.84;100826.97;5056259;28;51973;-44
2021/09/14 09:51:15;;;;;;;;;7.25;7.00;;;;;25.39;52.73;100824.19;5056508;28;50896;-42
2021/09/14 09:53:40;;;;;;;;;8.75;8.00;;;;;25.40;52.78;100819.47;5089773;27;51296;-42
2021/09/14 09:56:06;;;;;;;;;11.25;8.00;;;;;25.40;52.79;100819.47;5088960;27;51238;-43
2021/09/14 09:58:32;;;;;;;;;8.75;7.50;;;;;25.41;52.98;100816.44;5056128;28;51876;-43
2021/09/14 10:01:04;;;;;;;;;9.00;5.25;;;;;25.40;52.89;100812.00;5056493;28;51356;-41
2021/09/14 10:03:31;;;;;;;;;8.00;7.25;;;;;25.41;52.94;100815.63;5056511;28;51554;-46
2021/09/14 10:06:08;;;;;;;;;8.50;8.00;;;;;25.41;53.16;100815.63;5056523;28;50975;-44
2021/09/14 10:08:34;;;;;;;;;10.00;8.25;;;;;25.42;52.72;100820.06;5055765;28;51043;-43
2021/09/14 10:11:00;;;;;;;;;7.00;6.00;;;;;25.43;53.01;100816.19;5056795;28;51443;-45
2021/09/14 10:13:34;;;;;;;;;9.00;6.50;;;;;25.43;52.83;100824.50;5055991;28;51008;-45
2021/09/14 10:16:00;;;;;;;;;10.00;8.25;;;;;25.44;53.01;100823.44;5056611;28;51294;-43
2021/09/14 10:18:28;;;;;;;;;7.50;7.50;;;;;25.44;52.88;100818.72;5071802;28;53109;-44
2021/09/14 10:20:54;;;;;;;;;8.00;8.00;;;;;25.44;52.92;100821.50;5055987;28;50893;-45
2021/09/14 10:23:34;;;;;;;;;9.50;8.00;;;;;25.45;52.92;100819.56;5055846;28;51140;-44
2021/09/14 10:26:07;;;;;;;;;8.75;8.75;;;;;25.46;52.77;100821.25;5056316;28;51995;-42
2021/09/14 10:28:51;;;;;;;;;9.25;8.75;;;;;25.46;52.51;100813.75;5055515;27;51357;-44
2021/09/14 10:31:28;;;;;;;;;11.00;9.25;;;;;25.47;52.99;100811.81;5056117;28;51271;-43
2021/09/14 10:34:06;;;;;;;;;8.50;7.00;;;;;25.48;52.84;100810.72;5056118;28;50972;-42
2021/09/14 10:36:34;;;;;;;;;9.75;7.25;;;;;25.49;52.91;100823.50;5055928;28;51027;-42
2021/09/14 10:38:59;;;;;;;;;12.75;8.75;;;;;25.49;52.86;100809.63;5055815;28;50917;-42
2021/09/14 10:41:36;;;;;;;;;8.00;7.25;;;;;25.50;52.91;100819.63;5055864;28;50869;-42
2021/09/14 10:44:07;;;;;;;;;9.25;9.25;;;;;25.50;53.11;100826.00;5055812;28;51076;-42
2021/09/14 10:46:33;;;;;;;;;12.50;10.50;;;;;25.51;52.50;100830.47;5055897;27;51184;-42
2021/09/14 10:48:58;;;;;;;;;7.00;6.75;;;;;25.51;53.05;100819.38;5055448;28;51596;-43
2021/09/14 10:51:23;;;;;;;;;10.00;8.25;;;;;25.53;53.17;100824.66;5055889;28;51311;-44
2021/09/14 10:53:54;;;;;;;;;9.25;9.00;;;;;25.53;53.20;100817.19;5055349;28;51345;-44
2021/09/14 10:56:19;;;;;;;;;12.00;10.00;;;;;25.53;53.15;100819.97;5055880;28;51258;-42
2021/09/14 10:58:45;;;;;;;;;11.25;11.25;;;;;25.54;53.16;100818.03;5055479;28;51341;-41
2021/09/14 11:01:11;;;;;;;;;13.75;10.25;;;;;25.55;53.20;100814.16;5055550;28;50993;-41
2021/09/14 11:03:37;;;;;;;;;9.25;8.25;;;;;25.55;53.12;100811.38;5055388;28;51125;-43
2021/09/14 11:06:03;;;;;;;;;10.50;9.25;;;;;25.56;53.02;100813.06;5055632;28;51031;-44
2021/09/14 11:08:28;;;;;;;;;8.50;8.50;;;;;25.57;53.46;100803.66;5057210;28;50879;-43
2021/09/14 11:10:58;;;;;;;;;9.00;8.75;;;;;25.59;53.43;100807.00;5058963;28;50847;-44
2021/09/14 11:13:27;;;;;;;;;10.25;7.25;;;;;25.58;53.19;100811.69;5058733;28;51059;-44
2021/09/14 11:16:04;;;;;;;;;10.50;8.50;;;;;25.59;53.26;100810.59;5059126;28;50876;-44
2021/09/14 11:18:33;;;;;;;;;10.50;9.00;;;;;25.59;53.48;100809.75;5058845;28;51077;-44
2021/09/14 11:21:02;;;;;;;;;14.50;10.50;;;;;25.60;53.01;100811.44;5058875;28;51004;-44
2021/09/14 11:23:28;;;;;;;;;10.00;8.50;;;;;25.59;53.34;100810.59;5059172;28;51023;-44
2021/09/14 11:25:55;;;;;;;;;11.25;10.50;;;;;25.60;52.98;100814.22;5058764;28;51204;-45
2021/09/14 11:28:21;;;;;;;;;11.50;10.25;;;;;25.60;53.40;100805.88;5091306;27;51189;-45
2021/09/14 11:31:01;;;;;;;;;10.75;9.25;;;;;25.62;53.09;100812.84;5058396;28;51117;-45
2021/09/14 11:33:28;;;;;;;;;7.25;7.25;;;;;25.63;52.91;100813.69;5058893;28;51008;-44
2021/09/14 11:35:59;;;;;;;;;8.00;8.00;;;;;25.63;53.33;100808.97;5058524;28;50907;-45
2021/09/14 11:38:26;;;;;;;;;11.50;9.50;;;;;25.64;53.54;100801.53;5058385;28;50919;-45
2021/09/14 11:40:56;;;;;;;;;8.50;8.50;;;;;25.65;53.12;100805.97;5058482;28;51230;-44
2021/09/14 11:43:43;;;;;;;;;10.00;10.00;;;;;25.66;53.21;100810.41;5058701;28;51177;-44
2021/09/14 11:46:16;;;;;;;;;10.25;9.00;;;;;25.66;53.28;100809.59;5058892;28;50977;-44
2021/09/14 11:48:53;;;;;;;;;13.50;9.00;;;;;25.66;53.26;100804.88;5058427;28;52013;-46
2021/09/14 11:51:19;;;;;;;;;8.00;8.00;;;;;25.67;53.14;100806.56;5091369;27;50984;-44
2021/09/14 11:53:50;;;;;;;;;10.25;9.00;;;;;25.68;53.42;100807.38;5057880;28;51064;-44
2021/09/14 11:56:17;;;;;;;;;10.25;9.75;;;;;25.68;53.14;100797.13;5059027;28;51230;-46
2021/09/14 11:58:46;;;;;;;;;6.25;6.25;;;;;25.68;53.49;100791.56;5058599;28;52264;-45
2021/09/14 12:01:13;;;;;;;;;9.50;9.25;;;;;25.68;53.10;100797.13;5057999;28;50924;-46
2021/09/14 12:03:51;;;;;;;;;9.50;9.00;;;;;25.70;53.22;100797.72;5057973;28;51117;-47
2021/09/14 12:06:30;;;;;;;;;10.00;9.00;;;;;25.70;52.87;100783.84;5058118;28;51183;-43
2021/09/14 12:09:01;;;;;;;;;11.00;9.75;;;;;25.71;52.79;100785.53;5058045;28;50888;-43
2021/09/14 12:11:35;;;;;;;;;7.25;7.25;;;;;25.72;53.04;100789.16;5058502;28;51106;-47
2021/09/14 12:14:04;;;;;;;;;8.00;6.50;;;;;25.72;53.23;100781.66;5057034;28;50980;-45